Albion, Pennsylvania
Current Conditions -  °F | °C
As of 3:51 PM on Wednesday 26 Nov 2014 (Local Time) from KERI Reporting Station
Overcast Overcast  
Wind Chill: 29°   Ceiling: 2600
Heat Index: 36°   Visibility: 10mi
Dew Point: 28°   Wind: 9mph
Humidity: 73%   Direction: 50°NE
Pressure: 30.04"   Gusts: NA
Location:  41.89°N, 80.36°W
Report Text: KERI 262051Z 05008KT 10SM OVC026 02/M02 A3004 RMK AO2 SLP180 T00221022 58007
Loading
Personal Weather Stations






























Interactive Weather Map New forecast layout! Learn more

10-Day Weather Forecast

Advertisements
Track Severe Weather on mobile